createdAt,value
2024-01-08T00:00:08.264Z,87953.00
2024-01-08T00:01:08.304Z,87951.00
2024-01-08T00:02:08.249Z,87955.00
2024-01-08T00:03:08.286Z,87955.00
2024-01-08T00:04:08.220Z,87955.00
2024-01-08T00:05:08.216Z,87953.00
2024-01-08T00:06:08.266Z,87952.00
2024-01-08T00:07:08.177Z,87954.00
2024-01-08T00:08:08.192Z,87955.00
2024-01-08T00:09:08.144Z,87953.00
2024-01-08T00:10:08.146Z,87956.00
2024-01-08T00:11:08.237Z,87953.00
2024-01-08T00:12:08.146Z,87954.00
2024-01-08T00:13:08.162Z,87954.00
2024-01-08T00:14:08.147Z,87952.00
2024-01-08T00:15:08.120Z,87954.00
2024-01-08T00:16:08.095Z,87953.00
2024-01-08T00:17:08.103Z,87954.00
2024-01-08T00:18:08.232Z,87955.00
2024-01-08T00:19:08.149Z,87957.00
2024-01-08T00:20:08.205Z,87956.00
2024-01-08T00:21:08.268Z,87956.00
2024-01-08T00:22:08.258Z,87955.00
2024-01-08T00:23:08.313Z,87953.00
2024-01-08T00:24:08.275Z,87955.00
2024-01-08T00:25:08.314Z,87953.00
2024-01-08T00:26:08.326Z,87954.00
2024-01-08T00:27:08.322Z,87956.00
2024-01-08T00:28:08.360Z,87951.00
2024-01-08T00:29:08.441Z,87950.00
2024-01-08T00:30:08.567Z,87951.00
2024-01-08T00:31:08.546Z,87954.00
2024-01-08T00:32:08.557Z,87951.00
2024-01-08T00:33:08.649Z,87954.00
2024-01-08T00:34:08.699Z,87957.00
2024-01-08T00:35:08.653Z,87953.00
2024-01-08T00:36:08.630Z,87956.00
2024-01-08T00:37:08.700Z,87953.00
2024-01-08T00:38:08.788Z,87956.00
2024-01-08T00:39:08.807Z,87955.00
2024-01-08T00:40:08.856Z,87956.00
2024-01-08T00:41:08.901Z,87957.00
2024-01-08T00:42:08.950Z,87961.00
2024-01-08T00:43:09.280Z,87958.00
2024-01-08T00:44:09.099Z,87958.00
2024-01-08T00:45:09.322Z,87962.00
2024-01-08T00:46:09.175Z,87962.00
2024-01-08T00:47:09.236Z,87961.00
2024-01-08T00:48:09.459Z,87962.00
2024-01-08T00:49:09.298Z,87962.00
2024-01-08T00:50:09.316Z,87966.00
2024-01-08T00:51:09.279Z,87965.00
2024-01-08T00:52:09.294Z,87965.00
2024-01-08T00:53:09.352Z,87963.00
2024-01-08T00:54:09.295Z,87968.00
2024-01-08T00:55:09.309Z,87968.00
2024-01-08T00:56:09.319Z,87969.00
2024-01-08T00:57:09.311Z,87972.00
2024-01-08T00:58:09.868Z,87969.00
2024-01-08T00:59:09.342Z,87971.00
2024-01-08T01:00:09.272Z,87973.00
2024-01-08T01:01:09.309Z,87971.00
2024-01-08T01:02:09.285Z,87972.00
2024-01-08T01:03:09.377Z,87974.00
2024-01-08T01:04:09.331Z,87971.00
2024-01-08T01:05:09.392Z,87972.00
2024-01-08T01:06:09.459Z,87973.00
2024-01-08T01:07:09.290Z,87972.00
2024-01-08T01:08:09.359Z,87973.00
2024-01-08T01:09:09.305Z,87972.00
2024-01-08T01:10:09.276Z,87973.00
2024-01-08T01:11:09.348Z,87973.00
2024-01-08T01:12:09.289Z,87971.00
2024-01-08T01:13:09.272Z,87972.00
2024-01-08T01:14:09.338Z,87975.00
2024-01-08T01:15:09.277Z,87974.00
2024-01-08T01:16:09.275Z,87977.00
2024-01-08T01:17:09.299Z,87977.00
2024-01-08T01:18:09.520Z,87977.00
2024-01-08T01:19:09.492Z,87977.00
2024-01-08T01:20:09.297Z,87973.00
2024-01-08T01:21:09.221Z,87975.00
2024-01-08T01:22:09.223Z,87975.00
2024-01-08T01:23:09.252Z,87976.00
2024-01-08T01:24:09.196Z,87974.00
2024-01-08T01:25:09.186Z,87977.00
2024-01-08T01:26:09.187Z,87977.00
2024-01-08T01:27:09.158Z,87976.00
2024-01-08T01:28:09.154Z,87980.00
2024-01-08T01:29:09.160Z,87978.00
2024-01-08T01:30:09.134Z,87979.00
2024-01-08T01:31:09.126Z,87981.00
2024-01-08T01:32:09.145Z,87980.00
2024-01-08T01:33:09.203Z,87979.00
2024-01-08T01:34:09.127Z,87980.00
2024-01-08T01:35:09.122Z,87979.00
2024-01-08T01:36:09.097Z,87979.00
2024-01-08T01:37:09.063Z,87980.00
2024-01-08T01:38:09.103Z,87980.00
2024-01-08T01:39:09.044Z,87982.00
2024-01-08T01:40:09.028Z,87983.00
2024-01-08T01:41:09.083Z,87981.00
2024-01-08T01:42:08.999Z,87983.00
2024-01-08T01:43:09.011Z,87986.00
2024-01-08T01:44:09.001Z,87984.00
2024-01-08T01:45:08.976Z,87984.00
2024-01-08T01:46:08.975Z,87983.00
2024-01-08T01:47:09.001Z,87988.00
2024-01-08T01:48:09.040Z,87987.00
2024-01-08T01:49:08.993Z,87989.00
2024-01-08T01:50:08.962Z,87986.00
2024-01-08T01:51:08.926Z,87987.00
2024-01-08T01:52:08.949Z,87987.00
2024-01-08T01:53:09.045Z,87987.00
2024-01-08T01:54:09.050Z,87984.00
2024-01-08T01:55:09.074Z,87984.00
2024-01-08T01:56:09.103Z,87983.00
2024-01-08T01:57:09.073Z,87983.00
2024-01-08T01:58:09.144Z,87984.00
2024-01-08T01:59:09.268Z,87983.00
2024-01-08T02:00:09.182Z,87983.00
2024-01-08T02:01:09.252Z,87985.00
2024-01-08T02:02:09.262Z,87982.00
2024-01-08T02:03:09.302Z,87983.00
2024-01-08T02:04:09.624Z,87985.00
2024-01-08T02:05:09.364Z,87987.00
2024-01-08T02:06:09.572Z,87986.00
2024-01-08T02:07:09.348Z,87986.00
2024-01-08T02:08:09.413Z,87984.00
2024-01-08T02:09:09.462Z,87984.00
2024-01-08T02:10:09.459Z,87985.00
2024-01-08T02:11:09.562Z,87985.00
2024-01-08T02:12:09.582Z,87986.00
2024-01-08T02:13:09.594Z,87984.00
2024-01-08T02:14:09.614Z,87987.00
2024-01-08T02:15:09.574Z,87985.00
2024-01-08T02:16:09.604Z,87989.00
2024-01-08T02:17:09.622Z,87988.00
2024-01-08T02:18:09.670Z,87986.00
2024-01-08T02:19:09.610Z,87984.00
2024-01-08T02:20:09.655Z,87987.00
2024-01-08T02:21:09.570Z,87985.00
2024-01-08T02:22:09.554Z,87984.00
2024-01-08T02:23:09.594Z,87985.00
2024-01-08T02:24:09.544Z,87987.00
2024-01-08T02:25:09.537Z,87989.00
2024-01-08T02:26:09.596Z,87989.00
2024-01-08T02:27:09.499Z,87990.00
2024-01-08T02:28:09.505Z,87993.00
2024-01-08T02:29:09.551Z,87992.00
2024-01-08T02:30:09.568Z,87989.00
2024-01-08T02:31:09.618Z,87991.00
2024-01-08T02:32:09.614Z,87992.00
2024-01-08T02:33:09.623Z,87990.00
2024-01-08T02:34:09.710Z,87989.00
2024-01-08T02:35:09.744Z,87989.00
2024-01-08T02:36:09.690Z,87989.00
2024-01-08T02:37:09.710Z,87990.00
2024-01-08T02:38:09.718Z,87990.00
2024-01-08T02:39:09.665Z,87992.00
2024-01-08T02:40:09.652Z,87992.00
2024-01-08T02:41:09.737Z,87995.00
2024-01-08T02:42:09.622Z,87993.00
2024-01-08T02:43:10.372Z,87994.00
2024-01-08T02:44:09.674Z,87994.00
2024-01-08T02:45:09.622Z,87995.00
2024-01-08T02:46:09.581Z,87994.00
2024-01-08T02:47:09.599Z,87994.00
2024-01-08T02:48:10.330Z,87996.00
2024-01-08T02:49:09.563Z,87995.00
2024-01-08T02:50:09.577Z,87996.00
2024-01-08T02:51:09.584Z,87997.00
2024-01-08T02:52:09.577Z,87995.00
2024-01-08T02:53:09.679Z,87996.00
2024-01-08T02:54:09.590Z,87999.00
2024-01-08T02:55:09.580Z,87997.00
2024-01-08T02:56:09.609Z,87995.00
2024-01-08T02:57:09.600Z,87996.00
2024-01-08T02:58:09.671Z,87996.00
2024-01-08T02:59:09.760Z,87997.00
2024-01-08T03:00:09.698Z,88000.00
2024-01-08T03:01:09.777Z,88001.00
2024-01-08T03:02:09.784Z,87999.00
2024-01-08T03:03:09.793Z,88002.00
2024-01-08T03:04:09.913Z,88002.00
2024-01-08T03:05:09.862Z,88003.00
2024-01-08T03:06:09.863Z,88003.00
2024-01-08T03:07:09.828Z,88001.00
2024-01-08T03:08:09.860Z,88003.00
2024-01-08T03:09:09.817Z,88005.00
2024-01-08T03:10:09.820Z,88003.00
2024-01-08T03:11:09.872Z,88006.00
2024-01-08T03:12:09.822Z,88003.00
2024-01-08T03:13:09.831Z,88005.00
2024-01-08T03:14:09.872Z,88007.00
2024-01-08T03:15:09.846Z,88005.00
2024-01-08T03:16:09.879Z,88006.00
2024-01-08T03:17:09.898Z,88009.00
2024-01-08T03:18:10.149Z,88010.00
2024-01-08T03:19:09.932Z,88007.00
2024-01-08T03:20:10.269Z,88011.00
2024-01-08T03:21:09.908Z,88007.00
2024-01-08T03:22:09.954Z,88010.00
2024-01-08T03:23:09.988Z,88007.00
2024-01-08T03:24:09.973Z,88008.00
2024-01-08T03:25:09.936Z,88008.00
2024-01-08T03:26:10.057Z,88007.00
2024-01-08T03:27:09.954Z,88012.00
2024-01-08T03:28:10.403Z,88009.00
2024-01-08T03:29:09.988Z,88011.00
2024-01-08T03:30:09.977Z,88010.00
2024-01-08T03:31:09.980Z,88012.00
2024-01-08T03:32:10.022Z,88014.00
2024-01-08T03:33:11.127Z,88014.00
2024-01-08T03:34:10.019Z,88012.00
2024-01-08T03:35:10.041Z,88011.00
2024-01-08T03:36:10.075Z,88010.00
2024-01-08T03:37:10.072Z,88013.00
2024-01-08T03:38:12.206Z,88010.00
2024-01-08T03:39:10.094Z,88013.00
2024-01-08T03:40:10.107Z,88012.00
2024-01-08T03:41:10.135Z,88010.00
2024-01-08T03:42:10.135Z,88014.00
2024-01-08T03:43:20.583Z,88014.00
2024-01-08T03:44:10.163Z,88014.00
2024-01-08T03:45:10.118Z,88014.00
2024-01-08T03:46:10.128Z,88012.00
2024-01-08T03:47:10.131Z,88015.00
2024-01-08T03:52:10.117Z,88017.00
2024-01-08T03:53:10.127Z,88019.00
2024-01-08T03:54:10.293Z,88020.00
2024-01-08T03:55:10.059Z,88017.00
2024-01-08T03:56:10.104Z,88021.00
2024-01-08T03:57:10.070Z,88021.00
2024-01-08T03:58:10.076Z,88019.00
2024-01-08T03:59:10.129Z,88020.00
2024-01-08T04:00:10.087Z,88020.00
2024-01-08T04:01:10.095Z,88018.00
2024-01-08T04:02:10.120Z,88017.00
2024-01-08T04:03:10.230Z,88019.00
2024-01-08T04:04:10.094Z,88019.00
2024-01-08T04:05:10.259Z,88019.00
2024-01-08T04:06:10.315Z,88019.00
2024-01-08T04:07:10.151Z,88019.00
2024-01-08T04:08:10.470Z,88020.00
2024-01-08T04:09:10.161Z,88020.00
2024-01-08T04:10:10.177Z,88021.00
2024-01-08T04:11:10.222Z,88021.00
2024-01-08T04:12:10.189Z,88023.00
2024-01-08T04:13:10.201Z,88021.00
2024-01-08T04:14:10.251Z,88021.00
2024-01-08T04:15:10.211Z,88021.00
2024-01-08T04:16:10.223Z,88022.00
2024-01-08T04:17:10.248Z,88026.00
2024-01-08T04:18:10.369Z,88025.00
2024-01-08T04:19:10.346Z,88026.00
2024-01-08T04:20:10.289Z,88023.00
2024-01-08T04:21:10.227Z,88023.00
2024-01-08T04:22:10.243Z,88026.00
2024-01-08T04:23:10.266Z,88024.00
2024-01-08T04:24:10.240Z,88025.00
2024-01-08T04:25:10.243Z,88026.00
2024-01-08T04:26:10.298Z,88025.00
2024-01-08T04:27:10.264Z,88029.00
2024-01-08T04:28:10.282Z,88028.00
2024-01-08T04:29:10.307Z,88028.00
2024-01-08T04:30:10.319Z,88030.00
2024-01-08T04:31:10.321Z,88029.00
2024-01-08T04:32:10.403Z,88030.00
2024-01-08T04:33:10.454Z,88031.00
2024-01-08T04:34:10.475Z,88033.00
2024-01-08T04:35:10.493Z,88034.00
2024-01-08T04:36:10.508Z,88036.00
2024-01-08T04:37:10.518Z,88038.00
2024-01-08T04:38:10.571Z,88037.00
2024-01-08T04:39:10.546Z,88039.00
2024-01-08T04:40:10.547Z,88041.00
2024-01-08T04:41:10.606Z,88042.00
2024-01-08T04:42:10.579Z,88041.00
2024-01-08T04:43:10.617Z,88041.00
2024-01-08T04:44:10.744Z,88040.00
2024-01-08T04:45:10.601Z,88045.00
2024-01-08T04:46:10.626Z,88042.00
2024-01-08T04:47:10.672Z,88045.00
2024-01-08T04:48:10.747Z,88046.00
2024-01-08T04:49:10.808Z,88044.00
2024-01-08T04:50:10.753Z,88046.00
2024-01-08T04:51:10.714Z,88047.00
2024-01-08T04:52:10.736Z,88048.00
2024-01-08T04:53:10.739Z,88048.00
2024-01-08T04:54:10.756Z,88050.00
2024-01-08T04:55:10.755Z,88053.00
2024-01-08T04:56:10.865Z,88056.00
2024-01-08T04:57:10.783Z,88051.00
2024-01-08T04:58:10.802Z,88052.00
2024-01-08T04:59:10.845Z,88054.00
2024-01-08T05:00:10.876Z,88054.00
2024-01-08T05:01:10.973Z,88054.00
2024-01-08T05:02:10.957Z,88054.00
2024-01-08T05:03:10.961Z,88052.00
2024-01-08T05:04:12.994Z,88054.00
2024-01-08T05:05:10.999Z,88055.00
2024-01-08T05:06:10.985Z,88056.00
2024-01-08T05:07:11.029Z,88057.00
2024-01-08T05:08:18.786Z,88059.00
2024-01-08T05:09:18.710Z,88059.00
2024-01-08T05:10:18.695Z,88059.00
2024-01-08T05:11:18.691Z,88057.00
2024-01-08T05:12:18.653Z,88057.00
2024-01-08T05:13:18.626Z,88060.00
2024-01-08T05:14:18.681Z,88060.00
2024-01-08T05:15:18.656Z,88061.00
2024-01-08T05:16:18.572Z,88061.00
2024-01-08T05:17:19.893Z,88063.00
2024-01-08T05:18:18.696Z,88063.00
2024-01-08T05:19:18.564Z,88064.00
2024-01-08T05:20:18.525Z,88063.00
2024-01-08T05:21:18.524Z,88063.00
2024-01-08T05:22:18.562Z,88064.00
2024-01-08T05:23:18.691Z,88063.00
2024-01-08T05:24:18.614Z,88062.00
2024-01-08T05:25:18.590Z,88066.00
2024-01-08T05:26:18.606Z,88063.00
2024-01-08T05:27:18.575Z,88066.00
2024-01-08T05:28:18.623Z,88068.00
2024-01-08T05:29:18.708Z,88066.00
2024-01-08T05:30:18.625Z,88066.00
2024-01-08T05:31:19.282Z,88068.00
2024-01-08T05:32:18.631Z,88067.00
2024-01-08T05:34:18.604Z,88066.00
2024-01-08T05:35:18.580Z,88065.00
2024-01-08T05:36:18.555Z,88069.00
2024-01-08T05:37:18.528Z,88068.00
2024-01-08T05:38:18.570Z,88067.00
2024-01-08T05:39:18.499Z,88068.00
2024-01-08T05:40:18.440Z,88067.00
2024-01-08T05:41:20.218Z,88069.00
2024-01-08T05:42:18.411Z,88068.00
2024-01-08T05:43:18.419Z,88072.00
2024-01-08T05:44:18.414Z,88074.00
2024-01-08T05:45:18.443Z,88074.00
2024-01-08T05:46:18.447Z,88076.00
2024-01-08T05:47:18.586Z,88075.00
2024-01-08T05:48:18.695Z,88075.00
2024-01-08T05:49:18.567Z,88080.00
2024-01-08T05:50:18.664Z,88076.00
2024-01-08T05:51:18.580Z,88077.00
2024-01-08T05:52:18.600Z,88079.00
2024-01-08T05:53:18.614Z,88078.00
2024-01-08T05:54:18.624Z,88077.00
2024-01-08T05:55:18.688Z,88079.00
2024-01-08T05:56:18.742Z,88080.00
2024-01-08T05:57:18.722Z,88083.00
2024-01-08T05:58:18.752Z,88085.00
2024-01-08T05:59:18.810Z,88085.00
2024-01-08T06:00:18.794Z,88086.00
2024-01-08T06:01:18.886Z,88088.00
2024-01-08T06:02:18.916Z,88089.00
2024-01-08T06:03:18.922Z,88089.00
2024-01-08T06:04:18.897Z,88087.00
2024-01-08T06:05:19.008Z,88085.00
2024-01-08T06:06:18.914Z,88089.00
2024-01-08T06:07:18.878Z,88086.00
2024-01-08T06:08:18.868Z,88088.00
2024-01-08T06:09:18.805Z,88087.00
2024-01-08T06:10:18.805Z,88091.00
2024-01-08T06:11:18.801Z,88090.00
2024-01-08T06:12:18.746Z,88092.00
2024-01-08T06:13:18.712Z,88092.00
2024-01-08T06:14:18.771Z,88088.00
2024-01-08T06:15:18.702Z,88091.00
2024-01-08T06:16:18.707Z,88091.00
2024-01-08T06:17:18.680Z,88090.00
2024-01-08T06:18:18.717Z,88089.00
2024-01-08T06:19:18.707Z,88089.00
2024-01-08T06:20:18.639Z,88089.00
2024-01-08T06:21:18.624Z,88092.00
2024-01-08T06:22:18.613Z,88092.00
2024-01-08T06:23:18.637Z,88088.00
2024-01-08T06:24:18.561Z,88092.00
2024-01-08T06:25:18.552Z,88093.00
2024-01-08T06:26:18.662Z,88092.00
2024-01-08T06:27:18.540Z,88092.00
2024-01-08T06:28:18.569Z,88093.00
2024-01-08T06:29:18.537Z,88099.00
2024-01-08T06:30:18.566Z,88096.00
2024-01-08T06:31:18.484Z,88097.00
2024-01-08T06:32:18.523Z,88102.00
2024-01-08T06:33:18.566Z,88099.00
2024-01-08T06:34:18.527Z,88098.00
2024-01-08T06:35:18.537Z,88097.00
2024-01-08T06:36:18.454Z,88100.00
2024-01-08T06:37:18.477Z,88098.00
2024-01-08T06:38:19.317Z,88100.00
2024-01-08T06:39:18.403Z,88105.00
2024-01-08T06:40:20.613Z,88105.00
2024-01-08T06:41:18.522Z,88106.00
2024-01-08T06:42:18.440Z,88108.00
2024-01-08T06:43:18.429Z,88110.00
2024-01-08T06:44:18.435Z,88112.00
2024-01-08T06:45:18.417Z,88113.00
2024-01-08T06:46:20.159Z,88113.00
2024-01-08T06:47:18.488Z,88115.00
2024-01-08T06:48:18.496Z,88115.00
2024-01-08T06:49:18.491Z,88118.00
2024-01-08T06:50:18.383Z,88116.00
2024-01-08T06:51:18.362Z,88120.00
2024-01-08T06:52:18.295Z,88117.00
2024-01-08T06:53:18.335Z,88117.00
2024-01-08T06:54:18.238Z,88121.00
2024-01-08T06:55:18.263Z,88119.00
2024-01-08T06:56:18.409Z,88119.00
2024-01-08T06:57:18.284Z,88122.00
2024-01-08T06:58:18.306Z,88121.00
2024-01-08T06:59:18.367Z,88124.00
2024-01-08T07:00:18.358Z,88125.00
2024-01-08T07:01:18.441Z,88125.00
2024-01-08T07:02:18.429Z,88128.00
2024-01-08T07:03:18.632Z,88129.00
2024-01-08T07:04:18.472Z,88127.00
2024-01-08T07:05:18.689Z,88129.00
2024-01-08T07:06:19.122Z,88132.00
2024-01-08T07:07:18.598Z,88132.00
2024-01-08T07:08:19.349Z,88133.00
2024-01-08T07:09:18.766Z,88132.00
2024-01-08T07:10:18.647Z,88134.00
2024-01-08T07:11:18.753Z,88135.00
2024-01-08T07:12:18.677Z,88134.00
2024-01-08T07:13:18.736Z,88136.00
2024-01-08T07:14:18.758Z,88137.00
2024-01-08T07:15:19.298Z,88138.00
2024-01-08T07:16:18.750Z,88135.00
2024-01-08T07:17:18.908Z,88138.00
2024-01-08T07:18:19.000Z,88137.00
2024-01-08T07:19:18.888Z,88140.00
2024-01-08T07:20:19.365Z,88141.00
2024-01-08T07:21:18.741Z,88142.00
2024-01-08T07:22:18.711Z,88143.00
2024-01-08T07:23:18.697Z,88146.00
2024-01-08T07:24:19.302Z,88143.00
2024-01-08T07:25:18.615Z,88141.00
2024-01-08T07:26:19.415Z,88147.00
2024-01-08T07:27:18.542Z,88149.00
2024-01-08T07:28:18.513Z,88151.00
2024-01-08T07:29:18.510Z,88151.00
2024-01-08T07:30:18.554Z,88151.00
2024-01-08T07:31:18.441Z,88151.00
2024-01-08T07:32:18.541Z,88155.00
2024-01-08T07:33:18.521Z,88154.00
2024-01-08T07:34:18.440Z,88156.00
2024-01-08T07:35:18.528Z,88159.00
2024-01-08T07:36:19.429Z,88162.00
2024-01-08T07:37:18.361Z,88162.00
2024-01-08T07:38:18.809Z,88165.00
2024-01-08T07:39:18.290Z,88166.00
2024-01-08T07:40:18.294Z,88166.00
2024-01-08T07:41:18.370Z,88167.00
2024-01-08T07:42:18.373Z,88170.00
2024-01-08T07:43:18.636Z,88169.00
2024-01-08T07:44:18.385Z,88171.00
2024-01-08T07:45:18.351Z,88174.00
2024-01-08T07:46:18.379Z,88176.00
2024-01-08T07:47:18.356Z,88175.00
2024-01-08T07:48:18.434Z,88176.00
2024-01-08T07:49:18.382Z,88178.00
2024-01-08T07:50:18.282Z,88178.00
2024-01-08T07:51:18.216Z,88179.00
2024-01-08T07:52:20.716Z,88180.00
2024-01-08T07:53:18.214Z,88183.00
2024-01-08T07:54:18.080Z,88184.00
2024-01-08T07:55:18.043Z,88181.00
2024-01-08T07:56:18.042Z,88184.00
2024-01-08T07:57:18.016Z,88183.00
2024-01-08T07:58:21.936Z,88188.00
2024-01-08T07:59:18.995Z,88187.00
2024-01-08T08:00:17.961Z,88190.00
2024-01-08T08:01:17.882Z,88188.00
2024-01-08T08:02:17.936Z,88187.00
2024-01-08T08:03:18.392Z,88187.00
2024-01-08T08:04:17.841Z,88187.00
2024-01-08T08:05:17.933Z,88188.00
2024-01-08T08:06:17.824Z,88190.00
2024-01-08T08:07:17.693Z,88193.00
2024-01-08T08:08:17.908Z,88188.00
2024-01-08T08:09:17.634Z,88189.00
2024-01-08T08:10:18.699Z,88191.00
2024-01-08T08:11:17.621Z,88194.00
2024-01-08T08:12:17.822Z,88189.00
2024-01-08T08:13:17.589Z,88191.00
2024-01-08T08:14:17.626Z,88197.00
2024-01-08T08:15:18.305Z,88197.00
2024-01-08T08:16:18.377Z,88196.00
2024-01-08T08:17:17.644Z,88198.00
2024-01-08T08:18:17.779Z,88200.00
2024-01-08T08:19:17.597Z,88200.00
2024-01-08T08:20:17.802Z,88200.00
2024-01-08T08:21:17.596Z,88204.00
2024-01-08T08:22:17.575Z,88205.00
2024-01-08T08:23:17.623Z,88204.00
2024-01-08T08:24:17.578Z,88203.00
2024-01-08T08:25:17.578Z,88209.00
2024-01-08T08:26:19.969Z,88205.00
2024-01-08T08:27:17.563Z,88204.00
2024-01-08T08:28:17.576Z,88205.00
2024-01-08T08:29:17.524Z,88204.00
2024-01-08T08:30:17.526Z,88208.00
2024-01-08T08:31:17.448Z,88206.00
2024-01-08T08:32:17.454Z,88211.00
2024-01-08T08:33:17.748Z,88210.00
2024-01-08T08:34:17.438Z,88211.00
2024-01-08T08:35:17.498Z,88210.00
2024-01-08T08:36:18.094Z,88212.00
2024-01-08T08:37:17.291Z,88212.00
2024-01-08T08:38:19.867Z,88215.00
2024-01-08T08:39:17.451Z,88218.00
2024-01-08T08:40:17.464Z,88215.00
2024-01-08T08:41:17.477Z,88217.00
2024-01-08T08:42:17.480Z,88218.00
2024-01-08T08:43:17.449Z,88218.00
2024-01-08T08:44:19.556Z,88218.00
2024-01-08T08:45:17.452Z,88222.00
2024-01-08T08:46:17.438Z,88224.00
2024-01-08T08:47:17.629Z,88225.00
2024-01-08T08:48:17.521Z,88225.00
2024-01-08T08:49:17.505Z,88225.00
2024-01-08T08:50:17.789Z,88226.00
2024-01-08T08:51:17.546Z,88228.00
2024-01-08T08:52:17.591Z,88232.00
2024-01-08T08:53:17.664Z,88232.00
2024-01-08T08:54:17.587Z,88233.00
2024-01-08T08:55:17.782Z,88234.00
2024-01-08T08:56:17.682Z,88233.00
2024-01-08T08:57:17.593Z,88232.00
2024-01-08T08:58:17.565Z,88234.00
2024-01-08T08:59:17.605Z,88241.00
2024-01-08T09:00:20.707Z,88239.00
2024-01-08T09:01:17.524Z,88237.00
2024-01-08T09:02:17.486Z,88242.00
2024-01-08T09:03:17.437Z,88243.00
2024-01-08T09:04:17.422Z,88243.00
2024-01-08T09:05:26.005Z,88243.00
2024-01-08T09:06:18.362Z,88242.00
2024-01-08T09:07:17.373Z,88243.00
2024-01-08T09:08:17.259Z,88247.00
2024-01-08T09:09:17.208Z,88247.00
2024-01-08T09:10:17.156Z,88249.00
2024-01-08T09:11:17.165Z,88249.00
2024-01-08T09:12:17.045Z,88252.00
2024-01-08T09:13:17.029Z,88252.00
2024-01-08T09:14:17.070Z,88252.00
2024-01-08T09:15:16.909Z,88250.00
2024-01-08T09:16:16.874Z,88253.00
2024-01-08T09:17:16.888Z,88255.00
2024-01-08T09:18:16.940Z,88254.00
2024-01-08T09:19:16.902Z,88258.00
2024-01-08T09:20:16.732Z,88257.00
2024-01-08T09:21:16.660Z,88258.00
2024-01-08T09:22:16.688Z,88259.00
2024-01-08T09:23:16.723Z,88260.00
2024-01-08T09:24:16.650Z,88262.00
2024-01-08T09:25:16.631Z,88260.00
2024-01-08T09:26:16.617Z,88263.00
2024-01-08T09:27:16.514Z,88264.00
2024-01-08T09:28:16.459Z,88264.00
2024-01-08T09:29:16.426Z,88265.00
2024-01-08T09:30:19.804Z,88266.00
2024-01-08T09:31:16.309Z,88262.00
2024-01-08T09:32:16.829Z,88264.00
2024-01-08T09:33:16.327Z,88265.00
2024-01-08T09:34:16.876Z,88261.00
2024-01-08T09:35:16.252Z,88263.00
2024-01-08T09:36:16.657Z,88263.00
2024-01-08T09:37:16.183Z,88264.00
2024-01-08T09:38:16.112Z,88266.00
2024-01-08T09:39:16.072Z,88269.00
2024-01-08T09:40:16.015Z,88265.00
2024-01-08T09:41:23.379Z,88264.00
2024-01-08T09:42:16.997Z,88266.00
2024-01-08T09:43:16.089Z,88265.00
2024-01-08T09:44:15.948Z,88266.00
2024-01-08T09:45:15.769Z,88266.00
2024-01-08T09:46:15.739Z,88267.00
2024-01-08T09:47:15.615Z,88269.00
2024-01-08T09:48:16.835Z,88268.00
2024-01-08T09:49:15.453Z,88266.00
2024-01-08T09:50:15.482Z,88263.00
2024-01-08T09:51:15.311Z,88265.00
2024-01-08T09:52:15.225Z,88261.00
2024-01-08T09:53:15.203Z,88263.00
2024-01-08T09:54:15.163Z,88259.00
2024-01-08T09:55:15.036Z,88261.00
2024-01-08T09:56:15.034Z,88261.00
2024-01-08T09:57:14.931Z,88262.00
2024-01-08T09:58:14.940Z,88259.00
2024-01-08T09:59:14.987Z,88259.00
2024-01-08T10:00:14.737Z,88261.00
2024-01-08T10:01:14.766Z,88258.00
2024-01-08T10:02:14.679Z,88258.00
2024-01-08T10:03:14.539Z,88256.00
2024-01-08T10:04:14.509Z,88253.00
2024-01-08T10:05:14.501Z,88255.00
2024-01-08T10:06:14.457Z,88254.00
2024-01-08T10:07:14.274Z,88255.00
2024-01-08T10:08:14.279Z,88257.00
2024-01-08T10:09:14.232Z,88256.00
2024-01-08T10:10:14.216Z,88255.00
2024-01-08T10:11:14.171Z,88255.00
2024-01-08T10:12:14.127Z,88255.00
2024-01-08T10:13:14.080Z,88253.00
2024-01-08T10:14:14.054Z,88251.00
2024-01-08T10:15:14.182Z,88255.00
2024-01-08T10:16:13.948Z,88255.00
2024-01-08T10:17:14.025Z,88254.00
2024-01-08T10:18:14.066Z,88252.00
2024-01-08T10:19:14.129Z,88248.00
2024-01-08T10:20:14.552Z,88248.00
2024-01-08T10:21:13.970Z,88248.00
2024-01-08T10:22:13.897Z,88245.00
2024-01-08T10:23:13.846Z,88247.00
2024-01-08T10:24:14.192Z,88245.00
2024-01-08T10:25:13.712Z,88239.00
2024-01-08T10:26:13.828Z,88239.00
2024-01-08T10:27:13.866Z,88238.00
2024-01-08T10:28:13.567Z,88237.00
2024-01-08T10:29:13.530Z,88237.00
2024-01-08T10:30:14.382Z,88234.00
2024-01-08T10:31:13.454Z,88233.00
2024-01-08T10:32:13.405Z,88233.00
2024-01-08T10:33:13.520Z,88235.00
2024-01-08T10:34:13.314Z,88235.00
2024-01-08T10:35:13.375Z,88236.00
2024-01-08T10:36:13.204Z,88236.00
2024-01-08T10:37:13.127Z,88235.00
2024-01-08T10:38:13.109Z,88234.00
2024-01-08T10:39:13.054Z,88236.00
2024-01-08T10:40:13.008Z,88233.00
2024-01-08T10:41:13.041Z,88232.00
2024-01-08T10:42:12.944Z,88235.00
2024-01-08T10:43:12.862Z,88228.00
2024-01-08T10:44:12.786Z,88229.00
2024-01-08T10:45:12.758Z,88229.00
2024-01-08T10:46:13.387Z,88229.00
2024-01-08T10:47:15.085Z,88227.00
2024-01-08T10:48:12.669Z,88225.00
2024-01-08T10:49:12.438Z,88224.00
2024-01-08T10:50:12.305Z,88225.00
2024-01-08T10:51:12.263Z,88227.00
2024-01-08T10:52:12.246Z,88223.00
2024-01-08T10:53:12.170Z,88220.00
2024-01-08T10:54:12.030Z,88223.00
2024-01-08T10:55:11.902Z,88225.00
2024-01-08T10:56:11.838Z,88221.00
2024-01-08T10:57:11.776Z,88221.00
2024-01-08T10:58:11.662Z,88220.00
2024-01-08T10:59:11.739Z,88221.00
2024-01-08T11:00:11.689Z,88218.00
2024-01-08T11:01:11.482Z,88220.00
2024-01-08T11:02:11.501Z,88220.00
2024-01-08T11:03:11.407Z,88223.00
2024-01-08T11:04:11.258Z,88221.00
2024-01-08T11:05:11.339Z,88221.00
2024-01-08T11:06:11.992Z,88217.00
2024-01-08T11:07:11.031Z,88218.00
2024-01-08T11:08:11.018Z,88219.00
2024-01-08T11:09:10.898Z,88220.00
2024-01-08T11:10:11.178Z,88221.00
2024-01-08T11:11:10.770Z,88219.00
2024-01-08T11:12:10.660Z,88218.00
2024-01-08T11:13:10.569Z,88220.00
2024-01-08T11:14:10.550Z,88217.00
2024-01-08T11:15:10.560Z,88218.00
2024-01-08T11:16:10.516Z,88217.00
2024-01-08T11:17:10.353Z,88218.00
2024-01-08T11:18:10.364Z,88218.00
2024-01-08T11:19:10.383Z,88214.00
2024-01-08T11:20:10.264Z,88218.00
2024-01-08T11:21:11.831Z,88215.00
2024-01-08T11:22:10.222Z,88216.00
2024-01-08T11:23:10.153Z,88215.00
2024-01-08T11:24:10.120Z,88210.00
2024-01-08T11:25:10.131Z,88215.00
2024-01-08T11:26:10.217Z,88211.00
2024-01-08T11:27:10.002Z,88212.00
2024-01-08T11:28:09.830Z,88207.00
2024-01-08T11:29:09.912Z,88215.00
2024-01-08T11:30:09.913Z,88213.00
2024-01-08T11:31:09.731Z,88211.00
2024-01-08T11:32:09.750Z,88210.00
2024-01-08T11:33:09.747Z,88210.00
2024-01-08T11:34:09.535Z,88211.00
2024-01-08T11:35:12.072Z,88210.00
2024-01-08T11:36:09.332Z,88209.00
2024-01-08T11:37:09.229Z,88210.00
2024-01-08T11:38:09.179Z,88209.00
2024-01-08T11:39:09.055Z,88210.00
2024-01-08T11:40:09.093Z,88211.00
2024-01-08T11:41:09.864Z,88209.00
2024-01-08T11:42:08.928Z,88208.00
2024-01-08T11:43:08.794Z,88211.00
2024-01-08T11:44:08.740Z,88212.00
2024-01-08T11:45:08.637Z,88207.00
2024-01-08T11:46:08.633Z,88207.00
2024-01-08T11:47:10.531Z,88210.00
2024-01-08T11:48:08.580Z,88212.00
2024-01-08T11:49:08.439Z,88211.00